Time;durP1;ratioP1;P1;durP2;ratioP2;P2;SDS_P1;SDS_P2;PMS_P1;PMS_P2;Temp;Humidity;BMP_temperature;BMP_pressure;BME280_temperature;BME280_humidity;BME280_pressure;Samples;Min_cycle;Max_cycle;Signal;HPM_P1;HPM_P2
2021/04/10 00:01:52;;;;;;;1.85;1.40;;;;;;;21.39;50.17;101782.22;1633762;85;21267;-58
2021/04/10 00:04:19;;;;;;;2.45;1.50;;;;;;;21.38;50.16;101774.23;1634546;85;21247;-58
2021/04/10 00:06:46;;;;;;;2.35;1.50;;;;;;;21.36;50.16;101765.39;1635251;85;21752;-58
2021/04/10 00:09:12;;;;;;;1.77;1.40;;;;;;;21.35;50.17;101770.66;1634623;85;21251;-58
2021/04/10 00:11:39;;;;;;;2.40;1.50;;;;;;;21.38;50.16;101772.85;1634559;85;21199;-58
2021/04/10 00:14:07;;;;;;;1.42;1.00;;;;;;;21.38;50.15;101768.70;1635022;85;21706;-58
2021/04/10 00:16:35;;;;;;;2.52;1.42;;;;;;;21.38;50.14;101771.47;1633727;85;21600;-58
2021/04/10 00:19:02;;;;;;;2.12;1.52;;;;;;;21.35;50.13;101766.51;1632992;85;21326;-58
2021/04/10 00:21:29;;;;;;;3.52;1.72;;;;;;;21.32;50.17;101772.09;1636420;85;21200;-58
2021/04/10 00:23:56;;;;;;;2.25;1.47;;;;;;;21.28;50.21;101770.22;1635319;85;21204;-58
2021/04/10 00:26:23;;;;;;;1.95;1.40;;;;;;;21.24;50.30;101767.23;1638104;85;22438;-58
2021/04/10 00:28:49;;;;;;;2.12;1.35;;;;;;;21.24;50.36;101762.25;1631061;85;21247;-58
2021/04/10 00:31:16;;;;;;;3.65;1.45;;;;;;;21.24;50.37;101759.48;1634697;85;21669;-58
2021/04/10 00:33:43;;;;;;;2.95;1.50;;;;;;;21.24;50.38;101766.41;1640402;85;21173;-58
2021/04/10 00:36:11;;;;;;;2.33;1.67;;;;;;;21.20;50.40;101760.66;1635501;85;21615;-58
2021/04/10 00:38:38;;;;;;;3.52;1.47;;;;;;;21.17;50.43;101765.41;1635844;85;21536;-58
2021/04/10 00:41:09;;;;;;;2.25;1.47;;;;;;;21.14;50.51;101761.83;1639018;85;21671;-58
2021/04/10 00:43:35;;;;;;;1.80;1.22;;;;;;;21.13;50.57;101763.53;1633088;85;21674;-58
2021/04/10 00:46:02;;;;;;;2.77;1.55;;;;;;;21.15;50.58;101762.66;1635406;85;21235;-59
2021/04/10 00:48:29;;;;;;;2.90;1.60;;;;;;;21.14;50.58;101759.06;1635945;85;21238;-58
2021/04/10 00:50:57;;;;;;;2.00;1.37;;;;;;;21.12;50.57;101759.08;1635117;85;21215;-58
2021/04/10 00:53:26;;;;;;;1.85;1.40;;;;;;;21.09;50.60;101761.07;1653294;83;22136;-58
2021/04/10 00:55:57;;;;;;;2.42;1.65;;;;;;;21.02;50.65;101760.03;1669015;83;21681;-58
2021/04/10 00:58:24;;;;;;;2.00;1.40;;;;;;;21.01;50.74;101763.09;1666523;83;21174;-58
2021/04/10 01:00:50;;;;;;;2.42;1.70;;;;;;;21.01;50.80;101757.00;1668164;83;21874;-58
2021/04/10 01:03:17;;;;;;;2.62;1.77;;;;;;;21.02;50.81;101748.97;1670557;84;21066;-58
2021/04/10 01:05:44;;;;;;;2.42;1.45;;;;;;;21.01;50.79;101747.31;1671640;84;21239;-58
2021/04/10 01:08:11;;;;;;;2.62;1.55;;;;;;;20.99;50.80;101748.19;1665362;83;21177;-58
2021/04/10 01:10:37;;;;;;;1.85;1.52;;;;;;;20.94;50.82;101751.02;1671162;83;21578;-58
2021/04/10 01:13:13;;;;;;;2.90;1.75;;;;;;;20.90;50.86;101748.59;1672473;84;21332;-58
2021/04/10 01:16:09;;;;;;;1.90;1.47;;;;;;;20.87;50.94;101746.42;1663014;84;21717;-58
2021/04/10 01:19:10;;;;;;;2.77;1.90;;;;;;;20.88;51.02;101751.64;1670172;83;23360;-58
2021/04/10 01:21:47;;;;;;;2.20;1.60;;;;;;;20.87;51.00;101748.63;1672149;83;21204;-58
2021/04/10 01:24:36;;;;;;;2.12;1.67;;;;;;;20.85;50.98;101746.70;1659169;84;21173;-58
2021/04/10 01:27:38;;;;;;;2.65;1.67;;;;;;;20.79;50.99;101740.97;1667182;84;21174;-60
2021/04/10 01:30:17;;;;;;;3.20;1.80;;;;;;;20.73;51.05;101738.02;1667257;84;21240;-59
2021/04/10 01:33:13;;;;;;;2.22;1.65;;;;;;;20.71;51.13;101743.00;1633960;85;21635;-58
2021/04/10 01:35:45;;;;;;;2.20;1.62;;;;;;;20.71;51.16;101747.16;1605898;87;21308;-58
2021/04/10 01:38:20;;;;;;;2.65;1.70;;;;;;;20.75;51.17;101739.91;1855280;75;22721;-59
2021/04/10 01:40:51;;;;;;;2.20;1.60;;;;;;;20.69;51.17;101745.27;1831571;77;20929;-58
2021/04/10 01:43:18;;;;;;;3.50;2.27;;;;;;;20.65;51.17;101748.36;1834581;77;21184;-58
2021/04/10 01:45:45;;;;;;;3.25;1.60;;;;;;;20.62;51.20;101746.74;1814511;77;21050;-59
2021/04/10 01:48:12;;;;;;;2.62;1.55;;;;;;;20.59;51.22;101748.69;1787122;78;21073;-59
2021/04/10 01:50:38;;;;;;;2.35;1.50;;;;;;;20.57;51.25;101740.72;1831043;77;21001;-59
2021/04/10 01:53:06;;;;;;;2.40;1.82;;;;;;;20.58;51.26;101741.55;1834541;77;21497;-59
2021/04/10 01:55:32;;;;;;;2.58;1.65;;;;;;;20.58;51.26;101739.57;1831996;77;21007;-59
2021/04/10 01:57:59;;;;;;;2.20;1.37;;;;;;;20.59;51.23;101738.46;1826948;77;21008;-58
2021/04/10 02:00:28;;;;;;;2.00;1.30;;;;;;;20.59;51.21;101734.31;1827080;77;21076;-59
2021/04/10 02:02:54;;;;;;;2.37;1.60;;;;;;;20.60;51.17;101735.97;1832350;77;21114;-59
2021/04/10 02:05:21;;;;;;;2.12;1.20;;;;;;;20.61;51.15;101737.63;1829161;77;21539;-59
2021/04/10 02:07:48;;;;;;;2.25;1.20;;;;;;;20.64;51.11;101728.73;1834773;77;21202;-58
2021/04/10 02:10:21;;;;;;;2.12;1.30;;;;;;;20.68;51.07;101736.70;1829871;77;21419;-59
2021/04/10 02:12:50;;;;;;;1.80;1.20;;;;;;;20.69;50.97;101732.81;1830981;77;21539;-58
2021/04/10 02:15:17;;;;;;;1.98;1.17;;;;;;;20.70;50.91;101729.50;1833370;76;21485;-58
2021/04/10 02:17:43;;;;;;;2.30;1.17;;;;;;;20.71;50.87;101734.71;1832265;77;21153;-59
2021/04/10 02:20:12;;;;;;;2.62;1.87;;;;;;;20.72;50.81;101736.92;1830065;77;21193;-58
2021/04/10 02:22:42;;;;;;;2.35;1.40;;;;;;;20.74;50.79;101738.84;1799334;78;21067;-59
2021/04/10 02:25:10;;;;;;;2.20;1.37;;;;;;;20.77;50.74;101741.01;1793275;78;21062;-58
2021/04/10 02:27:36;;;;;;;3.20;1.52;;;;;;;20.80;50.69;101743.17;1781330;79;21137;-59
2021/04/10 02:30:05;;;;;;;2.40;1.42;;;;;;;20.82;50.64;101739.56;1768085;79;21175;-59
2021/04/10 02:32:38;;;;;;;2.08;1.27;;;;;;;20.83;50.58;101742.60;1768240;79;21261;-58
2021/04/10 02:35:26;;;;;;;2.40;1.42;;;;;;;20.81;50.53;101738.73;1769909;79;21547;-58
2021/04/10 02:37:55;;;;;;;1.90;1.30;;;;;;;20.81;50.49;101738.73;1760580;80;21150;-58
2021/04/10 02:40:25;;;;;;;2.58;1.77;;;;;;;20.81;50.49;101733.20;1760600;80;21225;-58
2021/04/10 02:42:51;;;;;;;2.33;1.57;;;;;;;20.83;50.45;101735.69;1758564;80;21158;-58
2021/04/10 02:45:23;;;;;;;2.72;1.50;;;;;;;20.84;50.41;101738.14;1760836;80;22179;-59
2021/04/10 02:47:50;;;;;;;1.98;1.40;;;;;;;20.84;50.34;101733.16;1772189;79;21205;-59
2021/04/10 02:50:18;;;;;;;3.05;1.70;;;;;;;20.83;50.33;101735.69;1770838;79;21216;-58
2021/04/10 02:52:55;;;;;;;3.27;2.00;;;;;;;20.81;50.31;101741.50;1759605;80;21487;-58
2021/04/10 02:55:30;;;;;;;2.35;1.80;;;;;;;20.79;50.30;101738.78;1758926;80;21238;-58
2021/04/10 02:58:03;;;;;;;2.67;2.00;;;;;;;20.78;50.32;101726.07;1749512;78;21205;-59
2021/04/10 03:00:30;;;;;;;2.70;1.65;;;;;;;20.78;50.28;101723.30;1753240;80;21145;-59
2021/04/10 03:02:57;;;;;;;2.45;1.85;;;;;;;20.78;50.26;101732.42;1762174;80;21192;-59
2021/04/10 03:05:24;;;;;;;3.17;1.70;;;;;;;20.77;50.20;101736.86;1779389;79;21186;-58
2021/04/10 03:07:52;;;;;;;3.10;2.10;;;;;;;20.75;50.16;101727.47;1783907;79;21149;-59
2021/04/10 03:10:19;;;;;;;2.27;1.75;;;;;;;20.73;50.12;101737.19;1773823;79;21471;-58
2021/04/10 03:12:46;;;;;;;4.00;1.90;;;;;;;20.69;50.09;101734.20;1776444;79;21161;-58
2021/04/10 03:15:16;;;;;;;3.02;1.67;;;;;;;20.68;50.09;101731.72;1777785;79;21048;-57
2021/04/10 03:17:43;;;;;;;2.85;1.87;;;;;;;20.68;50.05;101736.70;1776135;79;21141;-58
2021/04/10 03:20:14;;;;;;;3.00;1.90;;;;;;;20.68;49.99;101731.16;1775188;79;21080;-59
2021/04/10 03:22:45;;;;;;;3.30;2.10;;;;;;;20.66;49.94;101736.73;1778681;79;22178;-58
2021/04/10 03:25:13;;;;;;;2.47;1.87;;;;;;;20.63;49.88;101739.52;1774785;79;21557;-58
2021/04/10 03:27:40;;;;;;;2.92;1.90;;;;;;;20.60;49.83;101735.97;1772080;80;21585;-57
2021/04/10 03:30:08;;;;;;;3.30;2.05;;;;;;;20.57;49.79;101733.80;1759128;80;21174;-58
2021/04/10 03:32:35;;;;;;;3.02;1.60;;;;;;;20.55;49.78;101737.41;1768662;80;21624;-58
2021/04/10 03:35:01;;;;;;;3.15;1.72;;;;;;;20.56;49.75;101734.91;1784341;79;21532;-57
2021/04/10 03:37:30;;;;;;;2.87;1.67;;;;;;;20.56;49.69;101735.47;1792188;78;21109;-58
2021/04/10 03:40:00;;;;;;;3.25;1.90;;;;;;;20.55;49.64;101736.58;1795491;78;21106;-58
2021/04/10 03:42:38;;;;;;;3.42;1.98;;;;;;;20.52;49.58;101742.15;1771419;79;21193;-57
2021/04/10 03:45:15;;;;;;;2.77;1.85;;;;;;;20.53;49.51;101734.69;1861245;75;22315;-58
2021/04/10 03:47:42;;;;;;;2.72;1.90;;;;;;;20.44;49.49;101740.04;1832239;77;21051;-58
2021/04/10 03:50:11;;;;;;;3.22;2.00;;;;;;;20.43;49.47;101749.44;1833461;77;23517;-58
2021/04/10 03:52:38;;;;;;;3.15;2.05;;;;;;;20.43;49.44;101745.30;1829482;77;21071;-57
2021/04/10 03:55:07;;;;;;;2.60;1.95;;;;;;;20.43;49.41;101752.20;1829954;77;21116;-59
2021/04/10 03:57:34;;;;;;;2.27;1.60;;;;;;;20.41;49.33;101751.11;1831450;77;21018;-58
2021/04/10 04:00:00;;;;;;;3.60;2.27;;;;;;;20.40;49.27;101756.95;1833247;77;21134;-58
2021/04/10 04:02:27;;;;;;;4.05;2.37;;;;;;;20.36;49.23;101749.80;1832133;77;21234;-59
2021/04/10 04:04:54;;;;;;;4.00;2.40;;;;;;;20.32;49.21;101749.30;1830865;77;21407;-59
2021/04/10 04:07:21;;;;;;;2.92;1.95;;;;;;;20.32;49.21;101753.45;1832711;77;21163;-58
2021/04/10 04:09:47;;;;;;;3.22;1.82;;;;;;;20.34;49.23;101754.78;1830705;77;21553;-59
2021/04/10 04:12:14;;;;;;;3.80;2.22;;;;;;;20.38;49.20;101756.41;1829189;77;21147;-58
2021/04/10 04:14:41;;;;;;;2.72;1.67;;;;;;;20.41;49.16;101764.92;1796187;78;21619;-58
2021/04/10 04:17:08;;;;;;;3.35;1.90;;;;;;;20.44;49.13;101755.24;1762761;80;21225;-57
2021/04/10 04:19:35;;;;;;;2.50;1.98;;;;;;;20.46;49.09;101757.14;1794795;78;21194;-57
2021/04/10 04:22:01;;;;;;;3.77;1.95;;;;;;;20.48;49.07;101756.30;1761234;80;21476;-58
2021/04/10 04:24:29;;;;;;;3.95;2.15;;;;;;;20.50;49.03;101759.02;1777384;78;21596;-58
2021/04/10 04:26:56;;;;;;;3.58;1.67;;;;;;;20.55;49.03;101762.29;1766471;78;21216;-56
2021/04/10 04:29:22;;;;;;;2.90;1.95;;;;;;;20.60;48.98;101762.79;1777752;79;21226;-60
2021/04/10 04:31:49;;;;;;;4.37;1.77;;;;;;;20.64;48.93;101763.30;1775431;79;21211;-58
2021/04/10 04:34:16;;;;;;;2.80;1.90;;;;;;;20.69;48.86;101764.62;1773288;79;21183;-58
2021/04/10 04:36:42;;;;;;;4.60;2.25;;;;;;;20.71;48.81;101773.42;1768016;79;21262;-58
2021/04/10 04:39:09;;;;;;;4.45;2.37;;;;;;;20.73;48.79;101776.73;1793005;78;21384;-57
2021/04/10 04:41:35;;;;;;;4.67;1.85;;;;;;;20.76;48.76;101777.52;1794558;78;21022;-57
2021/04/10 04:44:02;;;;;;;4.42;2.05;;;;;;;20.78;48.74;101772.53;1763075;80;21552;-58
2021/04/10 04:46:29;;;;;;;3.83;2.25;;;;;;;20.81;48.70;101773.87;1793449;78;21154;-58
2021/04/10 04:48:56;;;;;;;3.50;2.10;;;;;;;20.83;48.67;101771.64;1795089;78;21146;-57
2021/04/10 04:51:22;;;;;;;3.67;1.98;;;;;;;20.83;48.63;101773.86;1761162;80;21215;-57
2021/04/10 04:53:49;;;;;;;5.08;2.05;;;;;;;20.84;48.59;101769.95;1791827;78;21147;-57
2021/04/10 04:56:15;;;;;;;4.92;2.15;;;;;;;20.83;48.57;101767.50;1758414;80;21472;-58
2021/04/10 04:58:42;;;;;;;3.58;1.80;;;;;;;20.84;48.55;101769.95;1795066;78;21490;-57
2021/04/10 05:01:09;;;;;;;5.05;2.12;;;;;;;20.87;48.54;101776.84;1765970;80;21193;-59
2021/04/10 05:03:35;;;;;;;2.98;1.87;;;;;;;20.88;48.52;101776.53;1772818;79;21806;-58
2021/04/10 05:06:02;;;;;;;2.77;1.80;;;;;;;20.89;48.45;101774.59;1777349;79;21447;-58
2021/04/10 05:08:28;;;;;;;3.05;1.72;;;;;;;20.89;48.44;101775.42;1772292;79;21134;-58
2021/04/10 05:10:55;;;;;;;2.90;1.87;;;;;;;20.89;48.41;101772.66;1774135;79;21499;-58
2021/04/10 05:13:22;;;;;;;3.08;1.75;;;;;;;20.88;48.40;101781.23;1775413;79;21110;-58
2021/04/10 05:15:48;;;;;;;2.90;1.77;;;;;;;20.89;48.37;101779.56;1770184;79;21202;-57
2021/04/10 05:18:15;;;;;;;2.17;1.52;;;;;;;20.92;48.36;101780.91;1781979;79;22511;-58
2021/04/10 05:20:41;;;;;;;2.30;1.60;;;;;;;20.94;48.33;101785.05;1772999;79;21265;-57
2021/04/10 05:23:08;;;;;;;3.27;1.70;;;;;;;20.96;48.27;101779.22;1764880;80;21229;-58
2021/04/10 05:25:34;;;;;;;4.50;1.92;;;;;;;20.97;48.22;101782.23;1773934;79;21134;-58
2021/04/10 05:28:01;;;;;;;2.60;1.62;;;;;;;20.97;48.19;101782.23;1771826;79;21760;-58
2021/04/10 05:30:28;;;;;;;3.00;2.02;;;;;;;20.97;48.15;101787.20;1767896;79;21225;-58
2021/04/10 05:32:55;;;;;;;3.00;1.75;;;;;;;20.97;48.11;101780.29;1769568;79;21233;-58
2021/04/10 05:35:22;;;;;;;3.45;1.37;;;;;;;21.00;48.09;101781.66;1768107;79;21155;-58
2021/04/10 05:37:48;;;;;;;4.65;1.95;;;;;;;21.01;48.05;101782.45;1776655;79;21209;-57
2021/04/10 05:40:15;;;;;;;3.08;2.10;;;;;;;21.00;48.02;101788.58;1761460;79;21308;-57
2021/04/10 05:42:43;;;;;;;2.60;1.70;;;;;;;21.00;47.98;101784.98;1763871;79;21677;-57
2021/04/10 05:45:11;;;;;;;2.70;1.87;;;;;;;20.97;47.95;101783.06;1742130;79;21463;-58
2021/04/10 05:47:38;;;;;;;2.90;1.90;;;;;;;20.97;47.93;101793.30;1774071;79;21504;-57
2021/04/10 05:50:06;;;;;;;3.30;1.98;;;;;;;20.97;47.95;101798.27;1771814;80;21122;-58
2021/04/10 05:52:34;;;;;;;3.08;2.00;;;;;;;20.97;47.91;101795.51;1772419;79;21195;-58
2021/04/10 05:55:03;;;;;;;2.77;1.90;;;;;;;20.97;47.87;101800.21;1769914;79;21143;-58
2021/04/10 05:57:29;;;;;;;4.60;2.20;;;;;;;20.96;47.80;101795.82;1773267;79;21036;-58
2021/04/10 05:59:56;;;;;;;2.85;1.67;;;;;;;20.93;47.77;101797.22;1765377;79;21569;-58
2021/04/10 06:02:23;;;;;;;5.00;2.12;;;;;;;20.92;47.71;101796.95;1773429;79;21114;-57
2021/04/10 06:04:51;;;;;;;3.10;1.75;;;;;;;20.90;47.68;101799.20;1772465;79;23521;-58
2021/04/10 06:07:18;;;;;;;4.53;2.15;;;;;;;20.90;47.66;101796.99;1767147;79;21159;-58
2021/04/10 06:09:44;;;;;;;3.12;1.80;;;;;;;20.90;47.65;101795.05;1771652;79;21129;-57
2021/04/10 06:12:12;;;;;;;4.22;2.05;;;;;;;20.89;47.58;101798.93;1781653;78;21222;-58
2021/04/10 06:14:39;;;;;;;2.77;1.80;;;;;;;20.87;47.54;101794.27;1768914;80;21578;-57
2021/04/10 06:17:06;;;;;;;4.35;1.70;;;;;;;20.85;47.49;101793.73;1792780;78;21501;-57
2021/04/10 06:19:33;;;;;;;3.95;1.92;;;;;;;20.83;47.45;101797.92;1792674;78;21107;-58
2021/04/10 06:22:00;;;;;;;2.72;1.60;;;;;;;20.81;47.42;101798.20;1792473;78;21181;-58
2021/04/10 06:24:26;;;;;;;3.02;1.77;;;;;;;20.80;47.39;101795.17;1797885;78;21647;-58
2021/04/10 06:26:53;;;;;;;3.72;2.17;;;;;;;20.81;47.35;101796.00;1796875;78;21110;-58
2021/04/10 06:29:20;;;;;;;3.35;1.92;;;;;;;20.81;47.30;101800.97;1781221;78;21429;-58
2021/04/10 06:31:47;;;;;;;2.40;1.60;;;;;;;20.80;47.26;101797.11;1795333;78;21134;-58
2021/04/10 06:34:13;;;;;;;4.20;2.10;;;;;;;20.78;47.20;101800.74;1794780;78;21161;-59
2021/04/10 06:36:40;;;;;;;2.55;1.67;;;;;;;20.74;47.15;101791.39;1792508;78;21343;-58
2021/04/10 06:39:06;;;;;;;2.85;2.00;;;;;;;20.71;47.11;101801.08;1793285;78;21563;-57
2021/04/10 06:41:34;;;;;;;3.47;2.10;;;;;;;20.70;47.10;101800.02;1774293;78;21512;-57
2021/04/10 06:44:02;;;;;;;3.12;1.87;;;;;;;20.71;47.07;101807.20;1783038;78;21141;-57
2021/04/10 06:46:32;;;;;;;2.95;1.82;;;;;;;20.72;47.04;101812.97;1781461;79;20983;-57
2021/04/10 06:48:59;;;;;;;3.35;2.05;;;;;;;20.72;46.99;101809.65;1777518;78;21138;-56
2021/04/10 06:51:26;;;;;;;3.65;1.72;;;;;;;20.72;46.94;101812.97;1776513;79;21486;-57
2021/04/10 06:53:54;;;;;;;3.05;2.12;;;;;;;20.68;46.91;101814.13;1777172;79;21364;-57
2021/04/10 06:56:27;;;;;;;4.53;1.82;;;;;;;20.65;46.85;101811.95;1765242;79;21665;-56
2021/04/10 06:59:17;;;;;;;3.35;2.33;;;;;;;20.61;46.81;101816.42;1776516;79;21189;-56
2021/04/10 07:01:45;;;;;;;3.98;2.05;;;;;;;20.59;46.78;101813.66;1773963;79;21161;-57
2021/04/10 07:04:11;;;;;;;3.22;1.92;;;;;;;20.60;46.81;101815.32;1770789;79;21187;-57
2021/04/10 07:06:38;;;;;;;3.12;2.05;;;;;;;20.63;46.80;101811.96;1782482;79;21224;-60
2021/04/10 07:09:05;;;;;;;3.62;1.87;;;;;;;20.65;46.78;101805.04;1772304;79;21262;-57
2021/04/10 07:11:32;;;;;;;3.60;1.90;;;;;;;20.69;46.76;101806.66;1768915;79;21186;-58
2021/04/10 07:14:01;;;;;;;3.77;1.85;;;;;;;20.71;46.75;101805.81;1765815;79;21221;-57
2021/04/10 07:16:29;;;;;;;2.25;1.57;;;;;;;20.72;46.75;101808.27;1779929;79;21242;-58
2021/04/10 07:18:56;;;;;;;3.20;1.57;;;;;;;20.73;46.74;101809.92;1760557;79;21553;-57
2021/04/10 07:21:26;;;;;;;2.77;1.70;;;;;;;20.77;46.73;101802.68;1769482;79;21998;-57
2021/04/10 07:23:55;;;;;;;2.37;1.50;;;;;;;20.81;46.70;101803.73;1768402;79;21193;-57
2021/04/10 07:26:46;;;;;;;2.45;1.65;;;;;;;20.84;46.66;101798.98;1771662;79;21187;-58
2021/04/10 07:29:43;;;;;;;3.08;1.98;;;;;;;20.87;46.63;101803.13;1780265;79;21228;-57
2021/04/10 07:32:36;;;;;;;2.17;1.55;;;;;;;20.88;46.58;101805.58;1772725;79;21280;-57
2021/04/10 07:35:10;;;;;;;3.25;1.87;;;;;;;20.88;46.56;101798.66;1788410;78;21214;-57
2021/04/10 07:37:42;;;;;;;2.75;1.77;;;;;;;20.90;46.54;101803.35;1757310;80;21225;-58
2021/04/10 07:40:12;;;;;;;3.72;1.90;;;;;;;20.92;46.48;101803.86;1800091;78;21225;-58
2021/04/10 07:42:41;;;;;;;2.83;1.60;;;;;;;20.94;46.46;101796.66;1760848;80;21399;-58
2021/04/10 07:45:25;;;;;;;3.27;1.80;;;;;;;20.94;46.42;101796.11;1767305;78;22042;-57
2021/04/10 07:48:10;;;;;;;2.90;1.85;;;;;;;20.92;46.40;101800.27;1798574;78;21203;-58
2021/04/10 07:50:38;;;;;;;2.83;1.77;;;;;;;20.91;46.39;101789.80;1794135;78;21204;-58
2021/04/10 07:53:22;;;;;;;3.70;1.87;;;;;;;20.91;46.37;101793.94;1764923;80;21610;-58
2021/04/10 07:55:50;;;;;;;3.95;1.70;;;;;;;20.92;46.36;101787.27;1793290;78;21198;-58
2021/04/10 07:58:33;;;;;;;2.17;1.65;;;;;;;20.94;46.32;101788.36;1794996;78;22638;-58
2021/04/10 08:01:08;;;;;;;2.72;1.55;;;;;;;20.95;46.30;101783.10;1760296;80;21221;-58
2021/04/10 08:03:50;;;;;;;2.87;1.52;;;;;;;20.95;46.20;101788.08;1780341;78;21193;-58
2021/04/10 08:06:20;;;;;;;3.08;1.75;;;;;;;20.94;46.15;101788.36;1781554;79;21552;-57
2021/04/10 08:08:58;;;;;;;2.60;1.80;;;;;;;20.91;46.11;101788.97;1784844;79;21162;-58
2021/04/10 08:11:42;;;;;;;2.87;1.80;;;;;;;20.90;46.09;101786.75;1778299;79;21289;-58
2021/04/10 08:14:13;;;;;;;3.02;1.50;;;;;;;20.91;46.05;101782.05;1781048;79;21183;-57
2021/04/10 08:16:46;;;;;;;3.87;2.20;;;;;;;20.91;46.01;101782.05;1781786;79;21754;-56
2021/04/10 08:19:13;;;;;;;4.15;1.65;;;;;;;20.90;45.96;101780.40;1779173;79;21177;-56
2021/04/10 08:21:51;;;;;;;2.10;1.45;;;;;;;20.88;45.91;101777.09;1791889;79;21567;-58
2021/04/10 08:24:35;;;;;;;3.08;2.02;;;;;;;20.85;45.84;101777.13;1779473;79;22520;-60
2021/04/10 08:27:13;;;;;;;2.30;1.60;;;;;;;20.84;45.82;101778.25;1783173;79;21248;-57
2021/04/10 08:29:43;;;;;;;2.92;1.77;;;;;;;20.82;45.80;101766.67;1780179;78;21240;-58
2021/04/10 08:32:10;;;;;;;2.47;1.65;;;;;;;20.83;45.76;101768.87;1782757;78;21158;-58
2021/04/10 08:34:37;;;;;;;2.85;1.90;;;;;;;20.83;45.70;101771.09;1793176;78;21446;-58
2021/04/10 08:37:09;;;;;;;3.83;2.25;;;;;;;20.83;45.68;101768.87;1796633;78;21174;-58
2021/04/10 08:39:48;;;;;;;4.58;2.20;;;;;;;20.81;45.69;101767.78;1757889;80;21451;-58
2021/04/10 08:42:18;;;;;;;4.62;2.42;;;;;;;20.80;45.68;101762.53;1797148;78;21067;-58
2021/04/10 08:44:45;;;;;;;5.28;2.25;;;;;;;20.80;45.71;101767.51;1764736;80;21353;-58
2021/04/10 08:47:12;;;;;;;4.72;1.75;;;;;;;20.82;45.71;101762.52;1799678;78;21097;-62
2021/04/10 08:49:46;;;;;;;4.03;2.12;;;;;;;20.82;45.67;101758.38;1761898;80;22113;-58
2021/04/10 08:52:17;;;;;;;4.67;2.52;;;;;;;20.81;45.73;101751.19;1793618;78;21489;-58
2021/04/10 08:54:45;;;;;;;4.20;2.80;;;;;;;20.82;45.98;101756.98;1766562;79;21087;-58
2021/04/10 08:57:14;;;;;;;6.15;2.75;;;;;;;20.82;46.15;101753.39;1793673;78;21796;-60
2021/04/10 08:59:47;;;;;;;4.67;2.87;;;;;;;20.90;46.36;101751.35;1793765;78;21591;-61
2021/04/10 09:02:19;;;;;;;5.87;2.65;;;;;;;20.96;46.50;101752.94;1792797;78;21420;-57
2021/04/10 09:05:11;;;;;;;5.70;2.60;;;;;;;21.00;46.60;101744.87;1765155;80;21177;-58
2021/04/10 09:07:52;;;;;;;8.03;2.30;;;;;;;21.00;46.80;101746.25;1771577;79;21597;-57
2021/04/10 09:10:28;;;;;;;;;;;;;;;21.00;47.03;101742.09;1782142;78;21220;-57
2021/04/10 09:13:21;;;;;;;5.55;2.87;;;;;;;20.97;47.21;101735.20;1780280;79;20323;-56
2021/04/10 09:15:48;;;;;;;5.20;2.35;;;;;;;20.93;47.38;101732.77;1782443;78;21626;-58
2021/04/10 09:18:15;;;;;;;4.03;2.20;;;;;;;20.91;47.64;101741.38;1772332;80;21201;-57
2021/04/10 09:20:50;;;;;;;8.63;2.40;;;;;;;20.90;47.71;101732.81;1777787;78;21513;-56
2021/04/10 09:23:27;;;;;;;5.60;2.30;;;;;;;20.91;47.77;101730.31;1789756;78;21126;-56
2021/04/10 09:26:14;;;;;;;5.60;2.35;;;;;;;20.90;47.92;101728.66;1794812;78;21556;-56
2021/04/10 09:29:07;;;;;;;3.37;2.02;;;;;;;20.88;48.17;101721.77;1777306;78;21169;-56
2021/04/10 09:31:46;;;;;;;5.83;2.47;;;;;;;20.82;48.43;101718.83;1773470;78;21165;-56
2021/04/10 09:34:46;;;;;;;4.30;2.30;;;;;;;20.78;48.65;101717.22;1778624;79;21648;-57
2021/04/10 09:37:22;;;;;;;3.05;2.02;;;;;;;20.75;48.83;101719.76;1778622;79;21541;-56
2021/04/10 09:40:22;;;;;;;5.42;2.50;;;;;;;20.72;49.02;101717.56;1776784;80;21143;-56
2021/04/10 09:43:03;;;;;;;3.72;1.92;;;;;;;20.70;49.15;101715.67;1775083;79;21401;-57
2021/04/10 09:45:31;;;;;;;4.28;2.70;;;;;;;20.67;49.29;101712.92;1757811;80;21153;-56
2021/04/10 09:48:10;;;;;;;7.37;2.20;;;;;;;20.62;49.42;101708.86;1795071;78;21157;-56
2021/04/10 09:50:56;;;;;;;2.50;2.00;;;;;;;20.61;49.56;101707.77;1802601;78;21209;-56
2021/04/10 09:53:27;;;;;;;3.42;1.85;;;;;;;20.58;49.64;101705.02;1742092;80;21543;-58
2021/04/10 09:56:06;;;;;;;3.22;1.80;;;;;;;20.58;49.71;101705.02;1793684;78;21206;-57
2021/04/10 09:58:44;;;;;;;4.80;2.62;;;;;;;20.63;49.77;101697.22;1860581;74;28004;-56
2021/04/10 10:01:23;;;;;;;3.02;2.00;;;;;;;20.70;49.88;101688.84;1846768;76;21387;-56
2021/04/10 10:03:50;;;;;;;3.83;1.70;;;;;;;20.71;49.89;101699.34;1776076;79;21201;-56
2021/04/10 10:06:23;;;;;;;3.87;1.92;;;;;;;20.68;49.93;101697.98;1778374;79;21116;-56
2021/04/10 10:08:49;;;;;;;4.30;2.00;;;;;;;20.67;49.96;101695.50;1776506;80;20950;-56
2021/04/10 10:11:16;;;;;;;4.20;1.80;;;;;;;20.65;49.97;101690.84;1784240;78;21038;-56
2021/04/10 10:13:43;;;;;;;2.90;1.60;;;;;;;20.66;49.99;101686.97;1782311;78;21202;-57
2021/04/10 10:16:10;;;;;;;6.70;1.85;;;;;;;20.67;49.98;101692.73;1788602;78;22267;-57
2021/04/10 10:18:42;;;;;;;3.60;1.77;;;;;;;20.68;49.98;101686.09;1785617;78;21055;-57
2021/04/10 10:21:17;;;;;;;2.65;1.80;;;;;;;20.67;49.99;101686.65;1780618;79;21454;-57
2021/04/10 10:23:53;;;;;;;3.25;1.70;;;;;;;20.68;49.93;101682.77;1763272;79;21099;-56
2021/04/10 10:26:28;;;;;;;3.40;1.80;;;;;;;20.68;49.92;101681.39;1768006;79;21163;-57
2021/04/10 10:29:03;;;;;;;3.80;1.70;;;;;;;20.70;49.88;101675.58;1777557;80;21202;-57
2021/04/10 10:31:32;;;;;;;3.25;1.57;;;;;;;20.73;49.82;101679.95;1777907;79;21353;-56
2021/04/10 10:34:07;;;;;;;3.30;1.57;;;;;;;20.75;49.72;101668.59;1774535;80;21094;-56
2021/04/10 10:36:36;;;;;;;2.45;1.50;;;;;;;20.78;49.58;101668.81;1775639;79;21158;-54
2021/04/10 10:39:08;;;;;;;4.20;1.37;;;;;;;20.80;49.38;101676.23;1804652;78;21139;-56
2021/04/10 10:41:44;;;;;;;4.20;1.50;;;;;;;20.81;49.23;101664.06;1800436;79;21613;-56
2021/04/10 10:44:11;;;;;;;3.40;1.47;;;;;;;20.83;49.10;101666.55;1805584;79;21187;-56
2021/04/10 10:46:38;;;;;;;2.02;1.05;;;;;;;20.85;48.99;101666.50;1773714;80;21229;-57
2021/04/10 10:49:11;;;;;;;2.00;1.20;;;;;;;20.88;48.89;101667.83;1782645;79;21158;-57
2021/04/10 10:51:39;;;;;;;2.10;1.00;;;;;;;20.91;48.76;101658.39;1764081;80;21148;-58
2021/04/10 10:54:06;;;;;;;2.00;1.22;;;;;;;20.94;48.67;101656.41;1801876;77;22248;-56
2021/04/10 10:56:33;;;;;;;3.02;1.40;;;;;;;20.97;48.53;101659.95;1803861;78;21121;-57
2021/04/10 10:59:04;;;;;;;2.25;1.20;;;;;;;21.00;48.41;101658.55;1786228;78;21471;-62
2021/04/10 11:01:39;;;;;;;4.03;1.75;;;;;;;21.02;48.31;101654.91;1784719;78;21054;-59
2021/04/10 11:04:15;;;;;;;2.85;1.50;;;;;;;21.05;48.05;101652.11;1771949;79;21159;-58
2021/04/10 11:06:52;;;;;;;2.58;1.27;;;;;;;21.09;47.82;101639.33;1754184;80;21221;-58
2021/04/10 11:09:25;;;;;;;5.15;1.50;;;;;;;21.11;47.68;101639.83;1772139;80;21427;-59
2021/04/10 11:11:54;;;;;;;3.40;1.45;;;;;;;21.13;47.59;101639.02;1777437;79;21118;-58
2021/04/10 11:14:26;;;;;;;3.85;1.50;;;;;;;21.13;47.50;101641.78;1800190;79;21204;-58
2021/04/10 11:16:55;;;;;;;5.05;1.40;;;;;;;21.15;47.42;101629.83;1778333;79;21017;-59
2021/04/10 11:19:35;;;;;;;3.83;1.62;;;;;;;21.16;47.35;101625.39;1778189;78;21423;-59
2021/04/10 11:22:05;;;;;;;3.07;1.70;;;;;;;21.20;47.29;101622.84;1803299;79;20992;-57
2021/04/10 11:24:42;;;;;;;4.00;1.35;;;;;;;21.22;47.21;101618.62;1803684;77;21146;-57
2021/04/10 11:27:23;;;;;;;3.47;1.37;;;;;;;21.25;47.11;101612.52;1806461;77;21123;-58
2021/04/10 11:29:59;;;;;;;3.52;1.80;;;;;;;21.27;47.04;101601.12;1802976;77;21097;-58
2021/04/10 11:32:41;;;;;;;3.22;1.37;;;;;;;21.29;47.00;101615.49;1771180;79;21218;-58
2021/04/10 11:35:20;;;;;;;2.62;1.47;;;;;;;21.31;46.92;101605.75;1772845;79;21165;-60
2021/04/10 11:37:53;;;;;;;3.27;1.40;;;;;;;21.34;46.89;101591.88;1775442;79;21639;-57
2021/04/10 11:40:27;;;;;;;2.80;1.40;;;;;;;21.37;46.84;101594.86;1780493;78;21136;-58
2021/04/10 11:42:57;;;;;;;2.12;1.05;;;;;;;21.41;46.74;101590.36;1781491;78;21161;-58